sensor_id;sensor_type;location;lat;lon;timestamp;P1;durP1;ratioP1;P2;durP2;ratioP2
61675;SDS011;47574;52.090;5.244;2023-08-30T00:00:40;8.2;;;7.4;;
61675;SDS011;47574;52.090;5.244;2023-08-30T00:02:17;7.6;;;6.8;;
61675;SDS011;47574;52.090;5.244;2023-08-30T00:05:29;7.6;;;6.9;;
61675;SDS011;47574;52.090;5.244;2023-08-30T00:07:05;8.0;;;7.2;;
61675;SDS011;47574;52.090;5.244;2023-08-30T00:08:41;7.9;;;7.1;;
61675;SDS011;47574;52.090;5.244;2023-08-30T00:10:18;10.5;;;6.9;;
61675;SDS011;47574;52.090;5.244;2023-08-30T00:13:30;8.2;;;7.3;;
61675;SDS011;47574;52.090;5.244;2023-08-30T00:15:07;8.1;;;7.3;;
61675;SDS011;47574;52.090;5.244;2023-08-30T00:16:44;7.8;;;7.0;;
61675;SDS011;47574;52.090;5.244;2023-08-30T00:19:56;8.2;;;7.4;;
61675;SDS011;47574;52.090;5.244;2023-08-30T00:21:33;7.6;;;6.9;;
61675;SDS011;47574;52.090;5.244;2023-08-30T00:23:10;9.1;;;7.3;;
61675;SDS011;47574;52.090;5.244;2023-08-30T00:26:22;8.5;;;7.4;;
61675;SDS011;47574;52.090;5.244;2023-08-30T00:27:58;9.1;;;8.1;;
61675;SDS011;47574;52.090;5.244;2023-08-30T00:29:34;7.8;;;7.1;;
61675;SDS011;47574;52.090;5.244;2023-08-30T00:31:10;8.5;;;7.0;;
61675;SDS011;47574;52.090;5.244;2023-08-30T00:34:22;9.9;;;7.3;;
61675;SDS011;47574;52.090;5.244;2023-08-30T00:35:59;8.1;;;7.2;;
61675;SDS011;47574;52.090;5.244;2023-08-30T00:37:36;7.9;;;7.1;;
61675;SDS011;47574;52.090;5.244;2023-08-30T00:40:48;7.6;;;6.9;;
61675;SDS011;47574;52.090;5.244;2023-08-30T00:42:24;8.2;;;7.4;;
61675;SDS011;47574;52.090;5.244;2023-08-30T00:44:00;7.9;;;7.1;;
61675;SDS011;47574;52.090;5.244;2023-08-30T00:47:15;8.6;;;6.9;;
61675;SDS011;47574;52.090;5.244;2023-08-30T00:48:51;8.0;;;7.0;;
61675;SDS011;47574;52.090;5.244;2023-08-30T00:50:28;10.1;;;7.5;;
61675;SDS011;47574;52.090;5.244;2023-08-30T00:52:05;7.9;;;6.9;;
61675;SDS011;47574;52.090;5.244;2023-08-30T00:55:22;9.1;;;7.3;;
61675;SDS011;47574;52.090;5.244;2023-08-30T00:56:58;8.71;;;7.4;;
61675;SDS011;47574;52.090;5.244;2023-08-30T00:58:36;9.4;;;7.0;;
61675;SDS011;47574;52.090;5.244;2023-08-30T01:01:49;7.7;;;6.7;;
61675;SDS011;47574;52.090;5.244;2023-08-30T01:03:26;7.4;;;6.8;;
61675;SDS011;47574;52.090;5.244;2023-08-30T01:05:03;9.9;;;7.3;;
61675;SDS011;47574;52.090;5.244;2023-08-30T01:08:15;7.8;;;6.9;;
61675;SDS011;47574;52.090;5.244;2023-08-30T01:09:51;9.21;;;7.3;;
61675;SDS011;47574;52.090;5.244;2023-08-30T01:11:29;9.21;;;6.8;;
61675;SDS011;47574;52.090;5.244;2023-08-30T01:13:12;8.0;;;6.9;;
61675;SDS011;47574;52.090;5.244;2023-08-30T01:16:36;9.31;;;7.5;;
61675;SDS011;47574;52.090;5.244;2023-08-30T01:18:14;12.7;;;7.5;;
61675;SDS011;47574;52.090;5.244;2023-08-30T01:19:55;10.21;;;7.6;;
61675;SDS011;47574;52.090;5.244;2023-08-30T01:21:38;9.71;;;7.0;;
61675;SDS011;47574;52.090;5.244;2023-08-30T01:23:28;8.6;;;7.2;;
61675;SDS011;47574;52.090;5.244;2023-08-30T01:27:13;9.21;;;8.1;;
61675;SDS011;47574;52.090;5.244;2023-08-30T01:28:51;7.7;;;6.9;;
61675;SDS011;47574;52.090;5.244;2023-08-30T01:30:29;8.1;;;7.3;;
61675;SDS011;47574;52.090;5.244;2023-08-30T01:32:07;9.0;;;7.6;;
61675;SDS011;47574;52.090;5.244;2023-08-30T01:35:22;8.1;;;7.3;;
61675;SDS011;47574;52.090;5.244;2023-08-30T01:37:00;7.8;;;7.1;;
61675;SDS011;47574;52.090;5.244;2023-08-30T01:38:39;8.9;;;7.2;;
61675;SDS011;47574;52.090;5.244;2023-08-30T01:40:16;9.1;;;7.4;;
61675;SDS011;47574;52.090;5.244;2023-08-30T01:43:31;10.1;;;7.1;;
61675;SDS011;47574;52.090;5.244;2023-08-30T01:45:09;7.9;;;7.1;;
61675;SDS011;47574;52.090;5.244;2023-08-30T01:46:47;9.0;;;7.1;;
61675;SDS011;47574;52.090;5.244;2023-08-30T01:50:02;7.9;;;7.1;;
61675;SDS011;47574;52.090;5.244;2023-08-30T01:51:40;8.1;;;7.0;;
61675;SDS011;47574;52.090;5.244;2023-08-30T01:53:16;9.6;;;7.5;;
61675;SDS011;47574;52.090;5.244;2023-08-30T01:54:53;8.71;;;7.5;;
61675;SDS011;47574;52.090;5.244;2023-08-30T01:58:06;8.1;;;7.2;;
61675;SDS011;47574;52.090;5.244;2023-08-30T01:59:42;8.71;;;7.5;;
61675;SDS011;47574;52.090;5.244;2023-08-30T02:01:19;9.5;;;7.9;;
61675;SDS011;47574;52.090;5.244;2023-08-30T02:04:32;9.0;;;7.4;;
61675;SDS011;47574;52.090;5.244;2023-08-30T02:06:09;8.6;;;7.5;;
61675;SDS011;47574;52.090;5.244;2023-08-30T02:07:51;8.5;;;7.7;;
61675;SDS011;47574;52.090;5.244;2023-08-30T02:09:34;8.71;;;7.8;;
61675;SDS011;47574;52.090;5.244;2023-08-30T02:13:03;8.6;;;7.4;;
61675;SDS011;47574;52.090;5.244;2023-08-30T02:14:41;9.31;;;7.7;;
61675;SDS011;47574;52.090;5.244;2023-08-30T02:16:23;9.0;;;8.1;;
61675;SDS011;47574;52.090;5.244;2023-08-30T02:18:03;11.4;;;7.8;;
61675;SDS011;47574;52.090;5.244;2023-08-30T02:21:18;9.21;;;8.0;;
61675;SDS011;47574;52.090;5.244;2023-08-30T02:22:57;9.81;;;8.31;;
61675;SDS011;47574;52.090;5.244;2023-08-30T02:24:34;9.5;;;7.8;;
61675;SDS011;47574;52.090;5.244;2023-08-30T02:26:10;11.0;;;8.2;;
61675;SDS011;47574;52.090;5.244;2023-08-30T02:29:22;9.5;;;8.0;;
61675;SDS011;47574;52.090;5.244;2023-08-30T02:30:59;11.0;;;8.5;;
61675;SDS011;47574;52.090;5.244;2023-08-30T02:32:35;12.2;;;9.0;;
61675;SDS011;47574;52.090;5.244;2023-08-30T02:35:47;11.5;;;8.71;;
61675;SDS011;47574;52.090;5.244;2023-08-30T02:37:23;12.2;;;9.0;;
61675;SDS011;47574;52.090;5.244;2023-08-30T02:38:59;10.7;;;8.6;;
61675;SDS011;47574;52.090;5.244;2023-08-30T02:42:11;10.5;;;8.71;;
61675;SDS011;47574;52.090;5.244;2023-08-30T02:43:48;10.8;;;9.0;;
61675;SDS011;47574;52.090;5.244;2023-08-30T02:45:24;12.9;;;9.31;;
61675;SDS011;47574;52.090;5.244;2023-08-30T02:48:36;11.9;;;9.4;;
61675;SDS011;47574;52.090;5.244;2023-08-30T02:50:12;10.5;;;9.1;;
61675;SDS011;47574;52.090;5.244;2023-08-30T02:51:48;12.0;;;9.5;;
61675;SDS011;47574;52.090;5.244;2023-08-30T02:53:24;11.9;;;9.6;;
61675;SDS011;47574;52.090;5.244;2023-08-30T02:56:37;14.1;;;9.6;;
61675;SDS011;47574;52.090;5.244;2023-08-30T02:58:14;12.7;;;9.5;;
61675;SDS011;47574;52.090;5.244;2023-08-30T02:59:50;14.0;;;9.9;;
61675;SDS011;47574;52.090;5.244;2023-08-30T03:03:02;12.8;;;10.0;;
61675;SDS011;47574;52.090;5.244;2023-08-30T03:04:39;13.3;;;9.6;;
61675;SDS011;47574;52.090;5.244;2023-08-30T03:06:15;11.6;;;9.81;;
61675;SDS011;47574;52.090;5.244;2023-08-30T03:09:29;14.7;;;10.4;;
61675;SDS011;47574;52.090;5.244;2023-08-30T03:11:08;14.0;;;10.3;;
61675;SDS011;47574;52.090;5.244;2023-08-30T03:12:45;15.5;;;10.7;;
61675;SDS011;47574;52.090;5.244;2023-08-30T03:14:21;12.8;;;10.0;;
61675;SDS011;47574;52.090;5.244;2023-08-30T03:17:32;13.2;;;10.5;;
61675;SDS011;47574;52.090;5.244;2023-08-30T03:19:10;13.9;;;9.71;;
61675;SDS011;47574;52.090;5.244;2023-08-30T03:20:46;13.5;;;10.5;;
61675;SDS011;47574;52.090;5.244;2023-08-30T03:23:59;12.7;;;10.4;;
61675;SDS011;47574;52.090;5.244;2023-08-30T03:25:35;13.3;;;10.9;;
61675;SDS011;47574;52.090;5.244;2023-08-30T03:27:11;14.9;;;11.3;;
61675;SDS011;47574;52.090;5.244;2023-08-30T03:30:23;15.6;;;10.9;;
61675;SDS011;47574;52.090;5.244;2023-08-30T03:31:59;15.8;;;11.3;;
61675;SDS011;47574;52.090;5.244;2023-08-30T03:33:35;15.2;;;11.7;;
61675;SDS011;47574;52.090;5.244;2023-08-30T03:36:47;16.3;;;10.6;;
61675;SDS011;47574;52.090;5.244;2023-08-30T03:38:24;14.6;;;11.0;;
61675;SDS011;47574;52.090;5.244;2023-08-30T03:40:00;15.7;;;11.6;;
61675;SDS011;47574;52.090;5.244;2023-08-30T03:41:36;13.2;;;10.9;;
61675;SDS011;47574;52.090;5.244;2023-08-30T03:44:48;13.1;;;11.1;;
61675;SDS011;47574;52.090;5.244;2023-08-30T03:46:24;15.0;;;11.7;;
61675;SDS011;47574;52.090;5.244;2023-08-30T03:48:00;14.8;;;11.1;;
61675;SDS011;47574;52.090;5.244;2023-08-30T03:51:12;15.4;;;11.4;;
61675;SDS011;47574;52.090;5.244;2023-08-30T03:52:48;14.9;;;10.9;;
61675;SDS011;47574;52.090;5.244;2023-08-30T03:54:25;15.4;;;11.3;;
61675;SDS011;47574;52.090;5.244;2023-08-30T03:57:37;15.8;;;12.2;;
61675;SDS011;47574;52.090;5.244;2023-08-30T03:59:13;16.5;;;12.0;;
61675;SDS011;47574;52.090;5.244;2023-08-30T04:00:49;15.1;;;11.9;;
61675;SDS011;47574;52.090;5.244;2023-08-30T04:02:25;18.11;;;11.7;;
61675;SDS011;47574;52.090;5.244;2023-08-30T04:05:37;15.3;;;12.2;;
61675;SDS011;47574;52.090;5.244;2023-08-30T04:07:14;15.4;;;11.8;;
61675;SDS011;47574;52.090;5.244;2023-08-30T04:08:50;16.0;;;11.8;;
61675;SDS011;47574;52.090;5.244;2023-08-30T04:12:02;15.2;;;11.6;;
61675;SDS011;47574;52.090;5.244;2023-08-30T04:13:39;14.7;;;11.5;;
61675;SDS011;47574;52.090;5.244;2023-08-30T04:15:15;16.3;;;11.9;;
61675;SDS011;47574;52.090;5.244;2023-08-30T04:18:28;17.2;;;11.9;;
61675;SDS011;47574;52.090;5.244;2023-08-30T04:20:05;16.3;;;11.3;;
61675;SDS011;47574;52.090;5.244;2023-08-30T04:21:43;13.5;;;11.3;;
61675;SDS011;47574;52.090;5.244;2023-08-30T04:23:19;17.0;;;12.4;;
61675;SDS011;47574;52.090;5.244;2023-08-30T04:26:31;14.4;;;11.6;;
61675;SDS011;47574;52.090;5.244;2023-08-30T04:28:07;14.2;;;11.0;;
61675;SDS011;47574;52.090;5.244;2023-08-30T04:29:43;15.8;;;12.4;;
61675;SDS011;47574;52.090;5.244;2023-08-30T04:34:32;14.1;;;11.3;;
61675;SDS011;47574;52.090;5.244;2023-08-30T04:36:08;13.9;;;11.1;;
61675;SDS011;47574;52.090;5.244;2023-08-30T04:39:20;13.9;;;11.1;;
61675;SDS011;47574;52.090;5.244;2023-08-30T04:40:56;14.6;;;11.0;;
61675;SDS011;47574;52.090;5.244;2023-08-30T04:42:33;15.5;;;11.7;;
61675;SDS011;47574;52.090;5.244;2023-08-30T04:45:47;13.6;;;11.6;;
61675;SDS011;47574;52.090;5.244;2023-08-30T04:47:23;14.3;;;10.5;;
61675;SDS011;47574;52.090;5.244;2023-08-30T04:49:00;12.0;;;10.5;;
61675;SDS011;47574;52.090;5.244;2023-08-30T04:50:36;14.7;;;11.3;;
61675;SDS011;47574;52.090;5.244;2023-08-30T04:53:48;14.7;;;11.6;;
61675;SDS011;47574;52.090;5.244;2023-08-30T04:55:24;12.7;;;10.9;;
61675;SDS011;47574;52.090;5.244;2023-08-30T04:57:00;15.7;;;11.4;;
61675;SDS011;47574;52.090;5.244;2023-08-30T05:00:13;12.8;;;10.3;;
61675;SDS011;47574;52.090;5.244;2023-08-30T05:01:49;12.2;;;10.8;;
61675;SDS011;47574;52.090;5.244;2023-08-30T05:03:25;12.6;;;10.3;;
61675;SDS011;47574;52.090;5.244;2023-08-30T05:06:38;12.6;;;10.3;;
61675;SDS011;47574;52.090;5.244;2023-08-30T05:08:14;13.9;;;10.7;;
61675;SDS011;47574;52.090;5.244;2023-08-30T05:09:50;12.8;;;10.4;;
61675;SDS011;47574;52.090;5.244;2023-08-30T05:11:26;12.8;;;10.3;;
61675;SDS011;47574;52.090;5.244;2023-08-30T05:14:38;11.3;;;10.1;;
61675;SDS011;47574;52.090;5.244;2023-08-30T05:16:14;14.8;;;11.0;;
61675;SDS011;47574;52.090;5.244;2023-08-30T05:17:50;12.9;;;10.21;;
61675;SDS011;47574;52.090;5.244;2023-08-30T05:21:03;15.0;;;10.21;;
61675;SDS011;47574;52.090;5.244;2023-08-30T05:22:40;12.8;;;10.7;;
61675;SDS011;47574;52.090;5.244;2023-08-30T05:24:16;14.8;;;10.7;;
61675;SDS011;47574;52.090;5.244;2023-08-30T05:27:28;12.9;;;10.3;;
61675;SDS011;47574;52.090;5.244;2023-08-30T05:29:04;12.4;;;10.7;;
61675;SDS011;47574;52.090;5.244;2023-08-30T05:30:41;13.7;;;9.9;;
61675;SDS011;47574;52.090;5.244;2023-08-30T05:33:54;15.9;;;10.21;;
61675;SDS011;47574;52.090;5.244;2023-08-30T05:35:30;11.3;;;9.71;;
61675;SDS011;47574;52.090;5.244;2023-08-30T05:37:07;11.1;;;9.9;;
61675;SDS011;47574;52.090;5.244;2023-08-30T05:38:43;12.5;;;9.71;;
61675;SDS011;47574;52.090;5.244;2023-08-30T05:41:55;11.1;;;9.6;;
61675;SDS011;47574;52.090;5.244;2023-08-30T05:43:31;11.7;;;9.71;;
61675;SDS011;47574;52.090;5.244;2023-08-30T05:45:09;12.3;;;9.6;;
61675;SDS011;47574;52.090;5.244;2023-08-30T05:48:21;14.9;;;9.9;;
61675;SDS011;47574;52.090;5.244;2023-08-30T05:49:57;11.9;;;9.9;;
61675;SDS011;47574;52.090;5.244;2023-08-30T05:51:34;12.7;;;10.1;;
61675;SDS011;47574;52.090;5.244;2023-08-30T05:54:46;12.4;;;9.31;;
61675;SDS011;47574;52.090;5.244;2023-08-30T05:56:22;11.7;;;9.71;;
61675;SDS011;47574;52.090;5.244;2023-08-30T05:58:00;12.1;;;9.81;;
61675;SDS011;47574;52.090;5.244;2023-08-30T05:59:36;11.3;;;9.71;;
61675;SDS011;47574;52.090;5.244;2023-08-30T06:02:49;13.5;;;9.5;;
61675;SDS011;47574;52.090;5.244;2023-08-30T06:04:25;11.4;;;9.21;;
61675;SDS011;47574;52.090;5.244;2023-08-30T06:06:02;10.3;;;8.9;;
61675;SDS011;47574;52.090;5.244;2023-08-30T06:09:14;11.2;;;9.4;;
61675;SDS011;47574;52.090;5.244;2023-08-30T06:10:50;12.1;;;10.0;;
61675;SDS011;47574;52.090;5.244;2023-08-30T06:12:26;13.5;;;9.81;;
61675;SDS011;47574;52.090;5.244;2023-08-30T06:15:38;13.2;;;10.21;;
61675;SDS011;47574;52.090;5.244;2023-08-30T06:17:14;12.6;;;10.0;;
61675;SDS011;47574;52.090;5.244;2023-08-30T06:18:50;11.8;;;10.0;;
61675;SDS011;47574;52.090;5.244;2023-08-30T06:22:03;12.7;;;10.4;;
61675;SDS011;47574;52.090;5.244;2023-08-30T06:23:41;13.4;;;10.5;;
61675;SDS011;47574;52.090;5.244;2023-08-30T06:25:17;12.7;;;10.3;;
61675;SDS011;47574;52.090;5.244;2023-08-30T06:26:53;13.7;;;10.5;;
61675;SDS011;47574;52.090;5.244;2023-08-30T06:30:06;14.8;;;10.3;;
61675;SDS011;47574;52.090;5.244;2023-08-30T06:31:43;13.0;;;10.3;;
61675;SDS011;47574;52.090;5.244;2023-08-30T06:33:19;15.0;;;10.9;;
61675;SDS011;47574;52.090;5.244;2023-08-30T06:36:32;16.11;;;11.3;;
61675;SDS011;47574;52.090;5.244;2023-08-30T06:38:08;13.6;;;10.9;;
61675;SDS011;47574;52.090;5.244;2023-08-30T06:39:44;12.8;;;10.3;;
61675;SDS011;47574;52.090;5.244;2023-08-30T06:42:56;13.7;;;11.3;;
61675;SDS011;47574;52.090;5.244;2023-08-30T06:44:32;14.1;;;10.6;;
61675;SDS011;47574;52.090;5.244;2023-08-30T06:46:08;13.3;;;10.21;;
61675;SDS011;47574;52.090;5.244;2023-08-30T06:47:44;15.5;;;10.8;;
61675;SDS011;47574;52.090;5.244;2023-08-30T06:50:57;14.6;;;11.1;;
61675;SDS011;47574;52.090;5.244;2023-08-30T06:52:34;12.2;;;10.9;;
61675;SDS011;47574;52.090;5.244;2023-08-30T06:54:10;12.2;;;10.9;;
61675;SDS011;47574;52.090;5.244;2023-08-30T06:57:32;13.7;;;10.9;;
61675;SDS011;47574;52.090;5.244;2023-08-30T06:59:08;12.9;;;11.0;;
61675;SDS011;47574;52.090;5.244;2023-08-30T07:00:44;14.8;;;11.3;;
61675;SDS011;47574;52.090;5.244;2023-08-30T07:02:21;14.5;;;11.0;;
61675;SDS011;47574;52.090;5.244;2023-08-30T07:05:33;13.1;;;11.1;;
61675;SDS011;47574;52.090;5.244;2023-08-30T07:07:09;13.6;;;11.0;;
61675;SDS011;47574;52.090;5.244;2023-08-30T07:08:47;12.9;;;11.0;;
61675;SDS011;47574;52.090;5.244;2023-08-30T07:11:59;17.0;;;10.8;;
61675;SDS011;47574;52.090;5.244;2023-08-30T07:13:35;12.3;;;10.8;;
61675;SDS011;47574;52.090;5.244;2023-08-30T07:15:11;12.2;;;10.6;;
61675;SDS011;47574;52.090;5.244;2023-08-30T07:18:26;12.8;;;10.8;;
61675;SDS011;47574;52.090;5.244;2023-08-30T07:20:02;14.1;;;10.7;;
61675;SDS011;47574;52.090;5.244;2023-08-30T07:21:39;11.5;;;10.3;;
61675;SDS011;47574;52.090;5.244;2023-08-30T07:23:15;12.1;;;9.71;;
61675;SDS011;47574;52.090;5.244;2023-08-30T07:26:28;12.3;;;10.21;;
61675;SDS011;47574;52.090;5.244;2023-08-30T07:28:04;13.3;;;10.0;;
61675;SDS011;47574;52.090;5.244;2023-08-30T07:29:41;11.1;;;10.0;;
61675;SDS011;47574;52.090;5.244;2023-08-30T07:32:53;14.5;;;9.71;;
61675;SDS011;47574;52.090;5.244;2023-08-30T07:34:29;10.8;;;9.4;;
61675;SDS011;47574;52.090;5.244;2023-08-30T07:36:05;10.3;;;9.21;;
61675;SDS011;47574;52.090;5.244;2023-08-30T07:39:18;11.6;;;10.1;;
61675;SDS011;47574;52.090;5.244;2023-08-30T07:40:54;12.2;;;9.5;;
61675;SDS011;47574;52.090;5.244;2023-08-30T07:42:30;10.1;;;9.0;;
61675;SDS011;47574;52.090;5.244;2023-08-30T07:45:41;12.7;;;9.21;;
61675;SDS011;47574;52.090;5.244;2023-08-30T07:47:18;11.4;;;8.6;;
61675;SDS011;47574;52.090;5.244;2023-08-30T07:48:54;10.3;;;8.6;;
61675;SDS011;47574;52.090;5.244;2023-08-30T07:50:30;11.1;;;8.81;;
61675;SDS011;47574;52.090;5.244;2023-08-30T07:55:19;11.7;;;8.1;;
61675;SDS011;47574;52.090;5.244;2023-08-30T07:56:55;10.1;;;8.31;;
61675;SDS011;47574;52.090;5.244;2023-08-30T08:00:08;8.71;;;7.8;;
61675;SDS011;47574;52.090;5.244;2023-08-30T08:01:44;9.21;;;8.2;;
61675;SDS011;47574;52.090;5.244;2023-08-30T08:03:21;9.21;;;8.1;;
61675;SDS011;47574;52.090;5.244;2023-08-30T08:06:34;9.81;;;7.8;;
61675;SDS011;47574;52.090;5.244;2023-08-30T08:08:10;9.5;;;7.5;;
61675;SDS011;47574;52.090;5.244;2023-08-30T08:09:46;10.7;;;7.8;;
61675;SDS011;47574;52.090;5.244;2023-08-30T08:11:22;9.0;;;7.5;;
61675;SDS011;47574;52.090;5.244;2023-08-30T08:14:34;10.0;;;7.3;;
61675;SDS011;47574;52.090;5.244;2023-08-30T08:16:10;9.1;;;7.5;;
61675;SDS011;47574;52.090;5.244;2023-08-30T08:17:47;7.8;;;6.8;;
61675;SDS011;47574;52.090;5.244;2023-08-30T08:20:59;9.21;;;6.8;;
61675;SDS011;47574;52.090;5.244;2023-08-30T08:22:37;8.4;;;7.5;;
61675;SDS011;47574;52.090;5.244;2023-08-30T08:24:13;7.8;;;7.0;;
61675;SDS011;47574;52.090;5.244;2023-08-30T08:27:25;8.0;;;7.1;;
61675;SDS011;47574;52.090;5.244;2023-08-30T08:29:01;8.5;;;6.8;;
61675;SDS011;47574;52.090;5.244;2023-08-30T08:30:37;7.2;;;6.3;;
61675;SDS011;47574;52.090;5.244;2023-08-30T08:33:50;9.5;;;6.7;;
61675;SDS011;47574;52.090;5.244;2023-08-30T08:35:39;7.9;;;6.3;;
61675;SDS011;47574;52.090;5.244;2023-08-30T08:37:15;8.6;;;6.5;;
61675;SDS011;47574;52.090;5.244;2023-08-30T08:38:51;6.9;;;6.2;;
61675;SDS011;47574;52.090;5.244;2023-08-30T08:42:04;7.9;;;6.2;;
61675;SDS011;47574;52.090;5.244;2023-08-30T08:43:41;8.5;;;6.5;;
61675;SDS011;47574;52.090;5.244;2023-08-30T08:45:18;8.1;;;6.7;;
61675;SDS011;47574;52.090;5.244;2023-08-30T08:46:55;7.8;;;6.3;;
61675;SDS011;47574;52.090;5.244;2023-08-30T08:50:14;6.6;;;5.9;;
61675;SDS011;47574;52.090;5.244;2023-08-30T08:51:51;7.5;;;6.3;;
61675;SDS011;47574;52.090;5.244;2023-08-30T08:53:27;9.1;;;6.1;;
61675;SDS011;47574;52.090;5.244;2023-08-30T08:56:42;6.1;;;5.5;;
61675;SDS011;47574;52.090;5.244;2023-08-30T08:58:19;6.8;;;6.1;;
61675;SDS011;47574;52.090;5.244;2023-08-30T08:59:55;6.5;;;5.6;;
61675;SDS011;47574;52.090;5.244;2023-08-30T09:03:10;5.7;;;5.2;;
61675;SDS011;47574;52.090;5.244;2023-08-30T09:04:46;6.3;;;5.2;;
61675;SDS011;47574;52.090;5.244;2023-08-30T09:06:22;7.3;;;5.8;;
61675;SDS011;47574;52.090;5.244;2023-08-30T09:07:59;6.3;;;5.7;;
61675;SDS011;47574;52.090;5.244;2023-08-30T09:11:14;6.7;;;5.7;;
61675;SDS011;47574;52.090;5.244;2023-08-30T09:12:50;6.0;;;5.5;;
61675;SDS011;47574;52.090;5.244;2023-08-30T09:14:26;6.1;;;5.6;;
61675;SDS011;47574;52.090;5.244;2023-08-30T09:17:46;6.4;;;5.8;;
61675;SDS011;47574;52.090;5.244;2023-08-30T09:19:22;8.0;;;6.3;;
61675;SDS011;47574;52.090;5.244;2023-08-30T09:21:04;6.6;;;5.9;;
61675;SDS011;47574;52.090;5.244;2023-08-30T09:22:41;7.1;;;6.4;;
61675;SDS011;47574;52.090;5.244;2023-08-30T09:25:55;6.6;;;5.9;;
61675;SDS011;47574;52.090;5.244;2023-08-30T09:27:31;6.9;;;6.2;;
61675;SDS011;47574;52.090;5.244;2023-08-30T09:29:08;7.3;;;6.6;;
61675;SDS011;47574;52.090;5.244;2023-08-30T09:32:24;7.1;;;6.4;;
61675;SDS011;47574;52.090;5.244;2023-08-30T09:34:00;7.5;;;6.7;;
61675;SDS011;47574;52.090;5.244;2023-08-30T09:35:43;7.6;;;6.8;;
61675;SDS011;47574;52.090;5.244;2023-08-30T09:37:20;8.71;;;7.5;;
61675;SDS011;47574;52.090;5.244;2023-08-30T09:40:33;8.81;;;7.9;;
61675;SDS011;47574;52.090;5.244;2023-08-30T09:42:09;7.8;;;7.1;;
61675;SDS011;47574;52.090;5.244;2023-08-30T09:43:46;8.5;;;7.7;;
61675;SDS011;47574;52.090;5.244;2023-08-30T09:46:58;8.31;;;7.5;;
61675;SDS011;47574;52.090;5.244;2023-08-30T09:48:34;8.81;;;7.9;;
61675;SDS011;47574;52.090;5.244;2023-08-30T09:50:13;8.71;;;7.8;;
61675;SDS011;47574;52.090;5.244;2023-08-30T09:51:54;9.0;;;8.1;;
61675;SDS011;47574;52.090;5.244;2023-08-30T09:55:13;9.71;;;8.81;;
61675;SDS011;47574;52.090;5.244;2023-08-30T09:56:50;10.0;;;9.1;;
61675;SDS011;47574;52.090;5.244;2023-08-30T09:58:27;9.9;;;8.9;;
61675;SDS011;47574;52.090;5.244;2023-08-30T10:01:42;9.4;;;8.5;;
61675;SDS011;47574;52.090;5.244;2023-08-30T10:03:19;9.9;;;8.9;;
61675;SDS011;47574;52.090;5.244;2023-08-30T10:04:57;9.31;;;8.4;;
61675;SDS011;47574;52.090;5.244;2023-08-30T10:06:34;9.4;;;8.6;;
61675;SDS011;47574;52.090;5.244;2023-08-30T10:09:50;8.5;;;7.7;;
61675;SDS011;47574;52.090;5.244;2023-08-30T10:11:27;8.9;;;8.0;;
61675;SDS011;47574;52.090;5.244;2023-08-30T10:13:05;8.1;;;7.4;;
61675;SDS011;47574;52.090;5.244;2023-08-30T10:16:18;8.4;;;7.7;;
61675;SDS011;47574;52.090;5.244;2023-08-30T10:17:57;8.31;;;7.6;;
61675;SDS011;47574;52.090;5.244;2023-08-30T10:19:34;7.8;;;7.2;;
61675;SDS011;47574;52.090;5.244;2023-08-30T10:21:13;8.31;;;7.6;;
61675;SDS011;47574;52.090;5.244;2023-08-30T10:24:36;7.9;;;7.3;;
61675;SDS011;47574;52.090;5.244;2023-08-30T10:26:15;8.0;;;7.2;;
61675;SDS011;47574;52.090;5.244;2023-08-30T10:27:53;11.6;;;6.8;;
61675;SDS011;47574;52.090;5.244;2023-08-30T10:29:31;7.3;;;6.6;;
61675;SDS011;47574;52.090;5.244;2023-08-30T10:32:48;6.2;;;5.4;;
61675;SDS011;47574;52.090;5.244;2023-08-30T10:34:31;6.5;;;4.91;;
61675;SDS011;47574;52.090;5.244;2023-08-30T10:36:07;7.0;;;5.2;;
61675;SDS011;47574;52.090;5.244;2023-08-30T10:39:33;6.4;;;4.61;;
61675;SDS011;47574;52.090;5.244;2023-08-30T10:41:11;5.3;;;4.8;;
61675;SDS011;47574;52.090;5.244;2023-08-30T10:42:47;7.2;;;4.41;;
61675;SDS011;47574;52.090;5.244;2023-08-30T10:44:34;4.91;;;4.5;;
61675;SDS011;47574;52.090;5.244;2023-08-30T10:46:10;4.8;;;4.2;;
61675;SDS011;47574;52.090;5.244;2023-08-30T10:49:38;5.8;;;4.1;;
61675;SDS011;47574;52.090;5.244;2023-08-30T10:51:20;4.3;;;3.5;;
61675;SDS011;47574;52.090;5.244;2023-08-30T10:52:57;4.3;;;3.5;;
61675;SDS011;47574;52.090;5.244;2023-08-30T10:54:36;4.3;;;2.7;;
61675;SDS011;47574;52.090;5.244;2023-08-30T10:57:57;5.9;;;2.6;;
61675;SDS011;47574;52.090;5.244;2023-08-30T10:59:35;7.5;;;2.8;;
61675;SDS011;47574;52.090;5.244;2023-08-30T11:01:11;4.91;;;2.7;;
61675;SDS011;47574;52.090;5.244;2023-08-30T11:04:26;4.61;;;2.4;;
61675;SDS011;47574;52.090;5.244;2023-08-30T11:06:02;4.3;;;2.4;;
61675;SDS011;47574;52.090;5.244;2023-08-30T11:07:39;5.8;;;2.7;;
61675;SDS011;47574;52.090;5.244;2023-08-30T11:09:15;7.9;;;2.5;;
61675;SDS011;47574;52.090;5.244;2023-08-30T11:12:39;6.7;;;3.1;;
61675;SDS011;47574;52.090;5.244;2023-08-30T11:14:16;4.91;;;2.6;;
61675;SDS011;47574;52.090;5.244;2023-08-30T11:15:54;6.4;;;2.8;;
61675;SDS011;47574;52.090;5.244;2023-08-30T11:17:35;4.2;;;2.6;;
61675;SDS011;47574;52.090;5.244;2023-08-30T11:20:47;7.7;;;2.7;;
61675;SDS011;47574;52.090;5.244;2023-08-30T11:22:24;6.1;;;3.4;;
61675;SDS011;47574;52.090;5.244;2023-08-30T11:24:00;7.4;;;3.0;;
61675;SDS011;47574;52.090;5.244;2023-08-30T11:27:16;6.6;;;2.6;;
61675;SDS011;47574;52.090;5.244;2023-08-30T11:28:53;6.6;;;2.6;;
61675;SDS011;47574;52.090;5.244;2023-08-30T11:30:29;6.3;;;2.9;;
61675;SDS011;47574;52.090;5.244;2023-08-30T11:33:49;5.5;;;3.0;;
61675;SDS011;47574;52.090;5.244;2023-08-30T11:35:25;5.6;;;2.9;;
61675;SDS011;47574;52.090;5.244;2023-08-30T11:37:01;5.6;;;2.7;;
61675;SDS011;47574;52.090;5.244;2023-08-30T11:38:37;5.2;;;2.4;;
61675;SDS011;47574;52.090;5.244;2023-08-30T11:41:50;7.8;;;2.8;;
61675;SDS011;47574;52.090;5.244;2023-08-30T11:43:26;6.6;;;2.4;;
61675;SDS011;47574;52.090;5.244;2023-08-30T11:45:03;6.8;;;2.8;;
61675;SDS011;47574;52.090;5.244;2023-08-30T11:48:16;9.31;;;2.6;;
61675;SDS011;47574;52.090;5.244;2023-08-30T11:49:53;8.6;;;2.7;;
61675;SDS011;47574;52.090;5.244;2023-08-30T11:51:31;5.4;;;2.4;;
61675;SDS011;47574;52.090;5.244;2023-08-30T11:53:09;6.9;;;2.6;;
61675;SDS011;47574;52.090;5.244;2023-08-30T11:56:23;5.8;;;2.5;;
61675;SDS011;47574;52.090;5.244;2023-08-30T11:58:00;7.0;;;2.8;;
61675;SDS011;47574;52.090;5.244;2023-08-30T12:02:50;8.31;;;2.6;;
61675;SDS011;47574;52.090;5.244;2023-08-30T12:04:26;8.71;;;2.8;;
61675;SDS011;47574;52.090;5.244;2023-08-30T12:06:08;7.9;;;2.1;;
61675;SDS011;47574;52.090;5.244;2023-08-30T12:07:45;5.7;;;2.1;;
61675;SDS011;47574;52.090;5.244;2023-08-30T12:10:58;7.1;;;2.1;;
61675;SDS011;47574;52.090;5.244;2023-08-30T12:12:34;7.7;;;2.31;;
61675;SDS011;47574;52.090;5.244;2023-08-30T12:14:10;13.6;;;8.4;;
61675;SDS011;47574;52.090;5.244;2023-08-30T12:17:22;8.9;;;2.4;;
61675;SDS011;47574;52.090;5.244;2023-08-30T12:19:06;7.2;;;2.31;;
61675;SDS011;47574;52.090;5.244;2023-08-30T12:20:51;5.2;;;2.21;;
61675;SDS011;47574;52.090;5.244;2023-08-30T12:22:35;6.1;;;2.31;;
61675;SDS011;47574;52.090;5.244;2023-08-30T12:25:59;7.6;;;2.7;;
61675;SDS011;47574;52.090;5.244;2023-08-30T12:27:36;9.5;;;2.1;;
61675;SDS011;47574;52.090;5.244;2023-08-30T12:29:15;7.5;;;2.21;;
61675;SDS011;47574;52.090;5.244;2023-08-30T12:30:51;7.0;;;1.7;;
61675;SDS011;47574;52.090;5.244;2023-08-30T12:34:03;5.3;;;2.6;;
61675;SDS011;47574;52.090;5.244;2023-08-30T12:35:40;6.2;;;2.0;;
61675;SDS011;47574;52.090;5.244;2023-08-30T12:37:16;6.5;;;2.31;;
61675;SDS011;47574;52.090;5.244;2023-08-30T12:40:29;6.0;;;2.1;;
61675;SDS011;47574;52.090;5.244;2023-08-30T12:42:05;5.2;;;1.7;;
61675;SDS011;47574;52.090;5.244;2023-08-30T12:43:42;5.2;;;1.7;;
61675;SDS011;47574;52.090;5.244;2023-08-30T12:46:54;5.6;;;1.6;;
61675;SDS011;47574;52.090;5.244;2023-08-30T12:48:30;7.9;;;2.31;;
61675;SDS011;47574;52.090;5.244;2023-08-30T12:50:06;6.7;;;2.0;;
61675;SDS011;47574;52.090;5.244;2023-08-30T12:51:42;5.11;;;1.8;;
61675;SDS011;47574;52.090;5.244;2023-08-30T12:54:55;7.6;;;2.31;;